createdAt,value
2019-05-11T00:00:58.151Z,81.60
2019-05-11T00:03:28.062Z,81.60
2019-05-11T00:05:58.042Z,81.60
2019-05-11T00:08:28.702Z,81.80
2019-05-11T00:10:58.423Z,81.80
2019-05-11T00:13:28.120Z,82.00
2019-05-11T00:15:57.860Z,82.10
2019-05-11T00:18:27.759Z,82.30
2019-05-11T00:20:59.288Z,82.30
2019-05-11T00:23:29.613Z,82.30
2019-05-11T00:25:59.528Z,82.30
2019-05-11T00:28:29.436Z,83.00
2019-05-11T00:30:59.191Z,82.40
2019-05-11T00:33:28.833Z,82.20
2019-05-11T00:35:58.757Z,82.10
2019-05-11T00:38:28.456Z,82.20
2019-05-11T00:40:58.205Z,82.00
2019-05-11T00:43:27.676Z,81.90
2019-05-11T00:45:57.227Z,82.00
2019-05-11T00:48:26.895Z,81.80
2019-05-11T00:50:56.649Z,81.90
2019-05-11T00:53:26.180Z,82.00
2019-05-11T00:55:56.400Z,82.20
2019-05-11T00:58:26.320Z,82.20
2019-05-11T01:00:56.051Z,82.20
2019-05-11T01:03:25.965Z,82.20
2019-05-11T01:05:56.908Z,82.30
2019-05-11T01:08:26.633Z,82.20
2019-05-11T01:10:56.076Z,82.00
2019-05-11T01:13:25.747Z,81.90
2019-05-11T01:15:55.567Z,81.90
2019-05-11T01:18:25.621Z,81.80
2019-05-11T01:20:55.569Z,81.50
2019-05-11T01:23:25.261Z,81.40
2019-05-11T01:25:55.217Z,81.30
2019-05-11T01:28:24.859Z,81.50
2019-05-11T01:30:55.013Z,81.70
2019-05-11T01:33:24.913Z,81.70
2019-05-11T01:35:54.668Z,81.80
2019-05-11T01:38:24.535Z,82.20
2019-05-11T01:40:58.727Z,82.00
2019-05-11T01:43:26.419Z,82.10
2019-05-11T01:45:56.315Z,82.10
2019-05-11T01:48:26.018Z,82.10
2019-05-11T01:50:55.966Z,82.10
2019-05-11T01:53:25.607Z,82.10
2019-05-11T01:55:55.358Z,82.10
2019-05-11T01:58:25.295Z,82.20
2019-05-11T02:00:55.594Z,82.30
2019-05-11T02:03:25.340Z,82.40
2019-05-11T02:05:55.377Z,82.40
2019-05-11T02:08:24.831Z,82.30
2019-05-11T02:10:54.282Z,82.20
2019-05-11T02:13:24.087Z,81.80
2019-05-11T02:15:53.634Z,81.90
2019-05-11T02:18:23.338Z,82.20
2019-05-11T02:20:52.871Z,82.30
2019-05-11T02:23:22.508Z,82.30
2019-05-11T02:25:52.862Z,82.20
2019-05-11T02:28:22.802Z,82.30
2019-05-11T02:30:52.458Z,81.90
2019-05-11T02:33:21.987Z,82.00
2019-05-11T02:35:52.135Z,81.80
2019-05-11T02:38:22.034Z,81.60
2019-05-11T02:40:52.743Z,81.50
2019-05-11T02:43:22.276Z,81.80
2019-05-11T02:45:51.918Z,81.50
2019-05-11T02:48:21.377Z,81.50
2019-05-11T02:50:52.124Z,81.40
2019-05-11T02:53:22.502Z,81.40
2019-05-11T02:55:53.390Z,81.30
2019-05-11T02:58:23.629Z,81.10
2019-05-11T03:00:53.484Z,81.30
2019-05-11T03:03:23.197Z,81.30
2019-05-11T03:05:53.167Z,81.40
2019-05-11T03:08:23.379Z,81.60
2019-05-11T03:10:53.511Z,81.50
2019-05-11T03:13:24.292Z,81.70
2019-05-11T03:15:55.423Z,81.60
2019-05-11T03:18:25.080Z,81.70
2019-05-11T03:20:54.664Z,81.90
2019-05-11T03:23:24.345Z,82.10
2019-05-11T03:25:55.302Z,82.00
2019-05-11T03:28:24.996Z,81.80
2019-05-11T03:30:54.770Z,81.70
2019-05-11T03:33:24.416Z,81.90
2019-05-11T03:35:54.175Z,81.80
2019-05-11T03:38:23.854Z,81.80
2019-05-11T03:40:53.719Z,81.80
2019-05-11T03:43:23.416Z,81.90
2019-05-11T03:45:53.369Z,81.90
2019-05-11T03:48:23.089Z,82.00
2019-05-11T03:50:52.802Z,82.10
2019-05-11T03:53:22.243Z,82.20
2019-05-11T03:55:51.987Z,82.20
2019-05-11T03:58:25.858Z,82.20
2019-05-11T04:00:54.056Z,82.00
2019-05-11T04:03:23.974Z,82.00
2019-05-11T04:05:53.728Z,82.00
2019-05-11T04:08:23.440Z,82.00
2019-05-11T04:10:53.279Z,81.90
2019-05-11T04:13:24.437Z,82.00
2019-05-11T04:15:55.155Z,82.10
2019-05-11T04:18:24.585Z,82.00
2019-05-11T04:20:54.236Z,82.00
2019-05-11T04:23:25.545Z,82.10
2019-05-11T04:25:55.074Z,82.10
2019-05-11T04:28:26.164Z,82.10
2019-05-11T04:30:56.113Z,82.10
2019-05-11T04:33:25.604Z,82.00
2019-05-11T04:35:56.105Z,82.00
2019-05-11T04:38:26.230Z,82.10
2019-05-11T04:40:56.160Z,82.00
2019-05-11T04:43:26.067Z,82.00
2019-05-11T04:45:55.780Z,82.00
2019-05-11T04:48:25.571Z,82.00
2019-05-11T04:50:55.192Z,82.10
2019-05-11T04:53:24.941Z,81.90
2019-05-11T04:55:54.964Z,82.10
2019-05-11T04:58:24.719Z,81.80
2019-05-11T05:00:55.436Z,81.90
2019-05-11T05:03:39.765Z,81.70
2019-05-11T05:05:56.613Z,81.50
2019-05-11T05:08:28.042Z,81.40
2019-05-11T05:11:00.543Z,81.60
2019-05-11T05:13:31.444Z,82.00
2019-05-11T05:16:00.886Z,81.50
2019-05-11T05:18:30.544Z,82.00
2019-05-11T05:20:59.915Z,81.50
2019-05-11T05:23:29.745Z,82.20
2019-05-11T05:25:59.403Z,81.40
2019-05-11T05:28:28.944Z,81.20
2019-05-11T05:30:58.712Z,81.30
2019-05-11T05:33:28.418Z,81.10
2019-05-11T05:35:58.315Z,81.30
2019-05-11T05:38:28.062Z,81.20
2019-05-11T05:40:57.760Z,80.80
2019-05-11T05:43:28.656Z,80.50
2019-05-11T05:45:59.194Z,80.20
2019-05-11T05:48:28.923Z,80.40
2019-05-11T05:50:59.241Z,80.70
2019-05-11T05:53:28.662Z,80.60
2019-05-11T05:55:58.417Z,80.70
2019-05-11T05:58:28.430Z,80.20
2019-05-11T06:00:58.664Z,80.00
2019-05-11T06:03:28.115Z,80.40
2019-05-11T06:05:57.936Z,79.70
2019-05-11T06:08:27.445Z,79.20
2019-05-11T06:10:57.124Z,79.50
2019-05-11T06:13:43.542Z,80.10
2019-05-11T06:15:58.206Z,80.20
2019-05-11T06:18:28.260Z,79.50
2019-05-11T06:20:57.999Z,78.70
2019-05-11T06:23:27.716Z,79.50
2019-05-11T06:25:57.812Z,78.90
2019-05-11T06:28:27.550Z,77.70
2019-05-11T06:30:57.202Z,78.10
2019-05-11T06:33:27.340Z,78.50
2019-05-11T06:35:57.095Z,78.10
2019-05-11T06:38:26.735Z,78.10
2019-05-11T06:40:56.517Z,78.60
2019-05-11T06:43:26.160Z,78.70
2019-05-11T06:45:55.900Z,79.30
2019-05-11T06:48:26.266Z,77.60
2019-05-11T06:50:57.757Z,78.00
2019-05-11T06:53:27.698Z,78.20
2019-05-11T06:55:57.590Z,77.50
2019-05-11T06:58:27.031Z,76.80
2019-05-11T07:00:56.794Z,77.70
2019-05-11T07:03:26.255Z,77.50
2019-05-11T07:05:55.999Z,78.10
2019-05-11T07:08:26.552Z,77.60
2019-05-11T07:10:56.445Z,77.50
2019-05-11T07:13:26.172Z,76.10
2019-05-11T07:15:56.526Z,75.30
2019-05-11T07:18:26.790Z,75.30
2019-05-11T07:20:56.547Z,77.20
2019-05-11T07:23:26.197Z,76.40
2019-05-11T07:25:59.718Z,75.10
2019-05-11T07:28:27.471Z,76.40
2019-05-11T07:30:57.210Z,75.90
2019-05-11T07:33:28.720Z,74.10
2019-05-11T07:35:58.386Z,75.10
2019-05-11T07:38:28.216Z,74.80
2019-05-11T07:40:58.355Z,74.60
2019-05-11T07:43:28.861Z,74.40
2019-05-11T07:45:58.921Z,74.30
2019-05-11T07:48:28.835Z,72.00
2019-05-11T07:50:58.743Z,75.80
2019-05-11T07:53:28.401Z,75.20
2019-05-11T07:55:58.142Z,72.30
2019-05-11T07:58:28.643Z,72.90
2019-05-11T08:00:58.372Z,73.30
2019-05-11T08:03:28.639Z,73.40
2019-05-11T08:05:58.373Z,72.80
2019-05-11T08:08:28.446Z,72.80
2019-05-11T08:10:58.771Z,71.90
2019-05-11T08:13:28.621Z,71.80
2019-05-11T08:15:58.473Z,70.50
2019-05-11T08:18:28.611Z,72.20
2019-05-11T08:20:58.464Z,70.70
2019-05-11T08:23:29.713Z,71.30
2019-05-11T08:25:59.838Z,69.70
2019-05-11T08:28:29.687Z,71.10
2019-05-11T08:30:59.592Z,69.30
2019-05-11T08:33:29.719Z,70.40
2019-05-11T08:35:59.824Z,70.50
2019-05-11T08:38:29.575Z,71.10
2019-05-11T08:40:59.328Z,69.70
2019-05-11T08:43:29.236Z,70.90
2019-05-11T08:45:59.277Z,70.90
2019-05-11T08:48:29.149Z,70.30
2019-05-11T08:50:59.086Z,69.70
2019-05-11T08:53:28.840Z,70.70
2019-05-11T08:55:59.035Z,69.50
2019-05-11T08:58:29.782Z,68.00
2019-05-11T09:00:59.927Z,68.30
2019-05-11T09:03:29.489Z,66.60
2019-05-11T09:05:59.402Z,66.80
2019-05-11T09:08:29.332Z,66.60
2019-05-11T09:10:59.411Z,66.60
2019-05-11T09:13:29.773Z,68.20
2019-05-11T09:16:00.272Z,65.90
2019-05-11T09:18:31.193Z,66.40
2019-05-11T09:21:02.052Z,67.60
2019-05-11T09:23:37.394Z,66.90
2019-05-11T09:26:03.026Z,66.00
2019-05-11T09:28:32.689Z,65.80
2019-05-11T09:31:02.606Z,63.60
2019-05-11T09:33:32.366Z,63.10
2019-05-11T09:36:02.022Z,58.50
2019-05-11T09:38:31.969Z,63.70
2019-05-11T09:41:02.267Z,63.60
2019-05-11T09:43:32.173Z,64.50
2019-05-11T09:46:01.929Z,63.10
2019-05-11T09:48:32.002Z,60.20
2019-05-11T09:51:01.734Z,62.90
2019-05-11T09:53:31.515Z,63.40
2019-05-11T09:56:01.983Z,52.80
2019-05-11T09:58:31.636Z,58.70
2019-05-11T10:01:02.486Z,57.30
2019-05-11T10:03:31.871Z,59.90
2019-05-11T10:06:01.831Z,63.40
2019-05-11T10:08:32.447Z,59.20
2019-05-11T10:11:02.385Z,62.20
2019-05-11T10:13:32.429Z,56.70
2019-05-11T10:16:07.109Z,57.70
2019-05-11T10:18:33.647Z,55.70
2019-05-11T10:21:04.405Z,57.50
2019-05-11T10:23:34.272Z,53.30
2019-05-11T10:26:04.018Z,52.70
2019-05-11T10:28:33.652Z,48.20
2019-05-11T10:31:03.203Z,51.60
2019-05-11T10:33:33.579Z,50.60
2019-05-11T10:36:03.352Z,38.30
2019-05-11T10:38:33.103Z,39.40
2019-05-11T10:41:02.839Z,47.70
2019-05-11T10:43:32.798Z,47.60
2019-05-11T10:46:16.094Z,46.70
2019-05-11T10:48:33.629Z,41.00
2019-05-11T10:51:03.525Z,44.20
2019-05-11T10:53:33.644Z,47.70
2019-05-11T10:56:03.349Z,43.90
2019-05-11T10:58:32.805Z,43.10
2019-05-11T11:01:02.344Z,45.60
2019-05-11T11:03:32.073Z,43.80
2019-05-11T11:06:01.961Z,50.30
2019-05-11T11:08:31.714Z,48.30
2019-05-11T11:11:01.574Z,45.30
2019-05-11T11:13:31.048Z,50.20
2019-05-11T11:16:02.140Z,50.20
2019-05-11T11:18:32.391Z,43.70
2019-05-11T11:21:01.850Z,44.00
2019-05-11T11:23:31.366Z,40.20
2019-05-11T11:26:01.117Z,39.10
2019-05-11T11:28:31.209Z,40.60
2019-05-11T11:31:01.496Z,43.70
2019-05-11T11:33:31.041Z,37.70
2019-05-11T11:36:00.680Z,42.20
2019-05-11T11:38:30.427Z,40.40
2019-05-11T11:41:00.183Z,35.20
2019-05-11T11:43:29.824Z,39.20
2019-05-11T11:45:59.781Z,37.70
2019-05-11T11:48:29.492Z,40.70
2019-05-11T11:50:59.388Z,40.70
2019-05-11T11:53:29.726Z,37.40
2019-05-11T11:55:59.617Z,37.00
2019-05-11T11:58:30.162Z,34.80
2019-05-11T12:01:01.287Z,38.00
2019-05-11T12:03:31.831Z,35.70
2019-05-11T12:06:01.667Z,40.00
2019-05-11T12:08:31.841Z,37.50
2019-05-11T12:11:01.547Z,37.40
2019-05-11T12:13:31.268Z,37.30
2019-05-11T12:16:00.896Z,31.40
2019-05-11T12:18:30.845Z,39.70
2019-05-11T12:21:00.573Z,34.00
2019-05-11T12:23:30.497Z,36.70
2019-05-11T12:26:00.278Z,38.50
2019-05-11T12:28:30.546Z,38.70
2019-05-11T12:31:00.175Z,36.50
2019-05-11T12:33:29.992Z,37.00
2019-05-11T12:36:00.071Z,34.10
2019-05-11T12:38:30.003Z,38.70
2019-05-11T12:40:59.678Z,33.30
2019-05-11T12:43:30.406Z,35.40
2019-05-11T12:46:00.327Z,38.00
2019-05-11T12:48:30.086Z,37.00
2019-05-11T12:50:59.744Z,45.30
2019-05-11T12:53:29.661Z,37.50
2019-05-11T12:55:59.353Z,36.80
2019-05-11T12:58:29.103Z,35.30
2019-05-11T13:00:58.778Z,39.40
2019-05-11T13:03:28.931Z,38.50
2019-05-11T13:05:58.880Z,39.40
2019-05-11T13:08:28.899Z,42.80
2019-05-11T13:10:58.647Z,39.70
2019-05-11T13:13:28.778Z,41.60
2019-05-11T13:15:58.679Z,43.30
2019-05-11T13:18:28.812Z,42.80
2019-05-11T13:20:58.901Z,43.50
2019-05-11T13:23:28.845Z,41.90
2019-05-11T13:25:58.724Z,38.90
2019-05-11T13:28:28.483Z,37.50
2019-05-11T13:30:58.752Z,42.40
2019-05-11T13:33:29.133Z,38.00
2019-05-11T13:35:59.401Z,40.30
2019-05-11T13:38:29.551Z,39.50
2019-05-11T13:40:59.636Z,34.70
2019-05-11T13:43:29.598Z,37.60
2019-05-11T13:45:59.036Z,35.60
2019-05-11T13:48:28.556Z,39.50
2019-05-11T13:50:58.378Z,37.00
2019-05-11T13:53:28.028Z,34.20
2019-05-11T13:55:58.690Z,32.20
2019-05-11T13:58:28.683Z,34.30
2019-05-11T14:00:58.512Z,36.30
2019-05-11T14:03:29.046Z,32.10
2019-05-11T14:05:58.989Z,32.50
2019-05-11T14:08:28.905Z,32.70
2019-05-11T14:10:58.853Z,32.70
2019-05-11T14:13:29.630Z,37.10
2019-05-11T14:15:59.447Z,32.40
2019-05-11T14:18:29.337Z,31.00
2019-05-11T14:20:59.276Z,33.70
2019-05-11T14:26:01.749Z,32.00
2019-05-11T14:28:32.064Z,29.30
2019-05-11T14:31:01.976Z,31.10
2019-05-11T14:32:21.406Z,32.90
2019-05-11T14:33:31.891Z,36.60
2019-05-11T14:36:01.462Z,30.50
2019-05-11T14:38:32.141Z,28.40
2019-05-11T14:41:01.641Z,32.60
2019-05-11T14:43:32.021Z,36.00
2019-05-11T14:46:01.448Z,32.30
2019-05-11T14:48:31.164Z,28.60
2019-05-11T14:51:00.914Z,30.50
2019-05-11T14:53:30.568Z,33.80
2019-05-11T14:56:00.507Z,28.60
2019-05-11T14:58:30.261Z,28.30
2019-05-11T15:00:59.890Z,33.30
2019-05-11T15:03:30.443Z,27.50
2019-05-11T15:06:00.189Z,29.10
2019-05-11T15:08:29.868Z,29.00
2019-05-11T15:10:59.848Z,31.40
2019-05-11T15:13:29.330Z,29.00
2019-05-11T15:15:58.979Z,28.50
2019-05-11T15:18:38.516Z,29.70
2019-05-11T15:21:02.046Z,27.40
2019-05-11T15:23:32.008Z,24.70
2019-05-11T15:26:01.653Z,28.10
2019-05-11T15:28:31.100Z,29.50
2019-05-11T15:31:01.080Z,29.20
2019-05-11T15:33:30.521Z,27.20
2019-05-11T15:36:00.777Z,24.80
2019-05-11T15:38:31.913Z,27.40
2019-05-11T15:41:02.036Z,26.80
2019-05-11T15:43:33.358Z,26.70
2019-05-11T15:46:02.873Z,26.90
2019-05-11T15:48:32.957Z,27.30
2019-05-11T15:51:02.514Z,28.70
2019-05-11T15:53:32.145Z,29.20
2019-05-11T15:56:01.777Z,24.90
2019-05-11T15:58:31.795Z,25.70
2019-05-11T16:01:01.563Z,25.50
2019-05-11T16:03:31.446Z,26.30
2019-05-11T16:06:01.305Z,24.50
2019-05-11T16:08:30.852Z,24.40
2019-05-11T16:11:01.057Z,28.80
2019-05-11T16:13:30.894Z,27.70
2019-05-11T16:16:00.848Z,26.80
2019-05-11T16:18:30.493Z,27.20
2019-05-11T16:21:00.399Z,29.00
2019-05-11T16:23:29.836Z,29.40
2019-05-11T16:25:59.596Z,27.10
2019-05-11T16:28:30.839Z,26.40
2019-05-11T16:31:01.045Z,29.00
2019-05-11T16:33:30.779Z,29.00
2019-05-11T16:36:00.884Z,26.50
2019-05-11T16:38:30.991Z,26.80
2019-05-11T16:41:02.282Z,28.70
2019-05-11T16:43:32.027Z,30.00
2019-05-11T16:46:01.735Z,28.70
2019-05-11T16:48:31.594Z,28.10
2019-05-11T16:51:00.976Z,25.60
2019-05-11T16:53:30.719Z,26.30
2019-05-11T16:56:00.570Z,28.60
2019-05-11T16:58:30.326Z,28.00
2019-05-11T17:00:59.810Z,26.10
2019-05-11T17:03:29.783Z,28.00
2019-05-11T17:05:59.491Z,29.50
2019-05-11T17:08:29.119Z,31.40
2019-05-11T17:10:59.591Z,31.80
2019-05-11T17:13:29.545Z,32.80
2019-05-11T17:15:59.304Z,34.00
2019-05-11T17:18:29.060Z,34.50
2019-05-11T17:20:58.727Z,36.80
2019-05-11T17:23:30.471Z,37.00
2019-05-11T17:25:59.726Z,37.20
2019-05-11T17:28:29.335Z,35.60
2019-05-11T17:31:02.832Z,35.90
2019-05-11T17:33:30.731Z,35.40
2019-05-11T17:36:00.280Z,35.30
2019-05-11T17:38:29.938Z,35.10
2019-05-11T17:40:59.487Z,37.30
2019-05-11T17:43:30.664Z,35.10
2019-05-11T17:46:01.792Z,34.90
2019-05-11T17:48:31.439Z,37.10
2019-05-11T17:51:01.361Z,38.60
2019-05-11T17:53:32.083Z,38.10
2019-05-11T17:56:02.239Z,37.00
2019-05-11T17:58:32.278Z,38.70
2019-05-11T18:01:02.115Z,41.60
2019-05-11T18:03:32.118Z,41.60
2019-05-11T18:06:01.860Z,41.70
2019-05-11T18:08:31.779Z,40.70
2019-05-11T18:11:01.683Z,40.20
2019-05-11T18:13:32.096Z,41.70
2019-05-11T18:16:02.715Z,39.30
2019-05-11T18:18:32.459Z,40.90
2019-05-11T18:21:03.568Z,40.30
2019-05-11T18:23:34.044Z,40.50
2019-05-11T18:26:03.592Z,39.80
2019-05-11T18:28:33.320Z,44.10
2019-05-11T18:31:03.064Z,41.00
2019-05-11T18:33:32.732Z,42.30
2019-05-11T18:36:03.991Z,44.80
2019-05-11T18:38:34.438Z,43.60
2019-05-11T18:41:04.158Z,43.00
2019-05-11T18:43:34.197Z,45.10
2019-05-11T18:46:04.148Z,44.50
2019-05-11T18:48:34.090Z,43.30
2019-05-11T18:51:03.941Z,42.40
2019-05-11T18:53:33.675Z,42.00
2019-05-11T18:56:03.619Z,44.30
2019-05-11T18:58:33.330Z,43.30
2019-05-11T19:01:02.975Z,41.60
2019-05-11T19:03:32.737Z,43.50
2019-05-11T19:06:02.843Z,43.90
2019-05-11T19:08:32.571Z,42.70
2019-05-11T19:11:02.241Z,43.40
2019-05-11T19:13:32.346Z,44.10
2019-05-11T19:16:02.738Z,46.50
2019-05-11T19:18:32.177Z,45.70
2019-05-11T19:21:01.750Z,48.20
2019-05-11T19:23:31.394Z,45.50
2019-05-11T19:26:00.934Z,47.10
2019-05-11T19:28:31.031Z,46.10
2019-05-11T19:31:00.746Z,46.70
2019-05-11T19:33:30.454Z,48.50
2019-05-11T19:36:00.974Z,46.80
2019-05-11T19:38:31.250Z,45.70
2019-05-11T19:41:01.208Z,46.60
2019-05-11T19:43:30.931Z,49.40
2019-05-11T19:46:01.147Z,49.70
2019-05-11T19:48:30.866Z,51.10
2019-05-11T19:51:07.471Z,50.10
2019-05-11T19:53:31.780Z,49.10
2019-05-11T19:56:01.691Z,49.80
2019-05-11T19:58:31.875Z,50.60
2019-05-11T20:01:02.135Z,49.00
2019-05-11T20:03:31.635Z,47.00
2019-05-11T20:06:01.587Z,51.80
2019-05-11T20:08:32.785Z,48.70
2019-05-11T20:11:02.696Z,47.60
2019-05-11T20:13:32.321Z,49.50
2019-05-11T20:16:02.269Z,48.60
2019-05-11T20:18:31.967Z,50.50
2019-05-11T20:21:15.487Z,52.30
2019-05-11T20:23:33.389Z,52.50
2019-05-11T20:26:03.132Z,50.20
2019-05-11T20:28:33.015Z,50.00
2019-05-11T20:31:03.377Z,52.10
2019-05-11T20:33:32.875Z,51.40
2019-05-11T20:36:02.368Z,52.10
2019-05-11T20:38:32.062Z,52.20
2019-05-11T20:41:02.405Z,52.00
2019-05-11T20:43:32.825Z,52.10
2019-05-11T20:46:02.534Z,52.60
2019-05-11T20:48:32.050Z,52.30
2019-05-11T20:51:01.802Z,54.20
2019-05-11T20:53:31.234Z,55.80
2019-05-11T20:56:01.086Z,55.20
2019-05-11T20:58:32.391Z,57.60
2019-05-11T21:01:01.924Z,56.50
2019-05-11T21:03:32.632Z,54.80
2019-05-11T21:06:03.173Z,57.40
2019-05-11T21:08:32.804Z,55.70
2019-05-11T21:11:02.334Z,57.90
2019-05-11T21:13:32.058Z,56.20
2019-05-11T21:16:03.186Z,58.20
2019-05-11T21:18:32.909Z,55.70
2019-05-11T21:21:03.039Z,57.30
2019-05-11T21:23:32.551Z,57.30
2019-05-11T21:26:02.251Z,59.40
2019-05-11T21:28:31.974Z,60.70
2019-05-11T21:31:01.870Z,59.90
2019-05-11T21:33:31.638Z,59.70
2019-05-11T21:36:01.290Z,60.50
2019-05-11T21:38:31.859Z,60.40
2019-05-11T21:41:01.738Z,59.60
2019-05-11T21:43:31.162Z,61.10
2019-05-11T21:46:01.327Z,60.70
2019-05-11T21:48:31.456Z,61.80
2019-05-11T21:51:01.198Z,60.80
2019-05-11T21:53:31.274Z,62.20
2019-05-11T21:56:02.017Z,63.10
2019-05-11T21:58:31.934Z,64.00
2019-05-11T22:01:02.029Z,63.80
2019-05-11T22:03:31.756Z,62.70
2019-05-11T22:06:01.497Z,63.30
2019-05-11T22:08:30.927Z,65.30
2019-05-11T22:11:00.916Z,64.40
2019-05-11T22:13:30.756Z,65.50
2019-05-11T22:16:00.576Z,66.70
2019-05-11T22:18:31.548Z,65.20
2019-05-11T22:21:01.342Z,66.90
2019-05-11T22:23:31.455Z,66.40
2019-05-11T22:26:01.952Z,66.90
2019-05-11T22:28:31.689Z,66.60
2019-05-11T22:31:02.422Z,67.30
2019-05-11T22:33:32.159Z,68.00
2019-05-11T22:36:01.784Z,68.30
2019-05-11T22:38:31.333Z,68.50
2019-05-11T22:41:01.998Z,68.30
2019-05-11T22:43:31.490Z,69.20
2019-05-11T22:46:01.122Z,68.40
2019-05-11T22:48:30.570Z,68.80
2019-05-11T22:51:00.488Z,69.20
2019-05-11T22:53:43.675Z,69.60
2019-05-11T22:56:02.047Z,69.80
2019-05-11T22:58:32.490Z,69.50
2019-05-11T23:01:02.614Z,69.40
2019-05-11T23:03:32.349Z,70.10
2019-05-11T23:06:01.972Z,69.80
2019-05-11T23:08:31.531Z,69.40
2019-05-11T23:11:01.453Z,68.90
2019-05-11T23:13:31.357Z,69.10
2019-05-11T23:16:01.681Z,69.70
2019-05-11T23:18:31.496Z,69.50
2019-05-11T23:21:01.132Z,69.10
2019-05-11T23:23:30.770Z,68.30
2019-05-11T23:26:01.929Z,68.50
2019-05-11T23:28:31.677Z,69.60
2019-05-11T23:31:01.326Z,70.10
2019-05-11T23:33:30.827Z,70.90
2019-05-11T23:36:00.749Z,70.40
2019-05-11T23:38:30.881Z,70.70
2019-05-11T23:41:01.822Z,71.10
2019-05-11T23:43:31.362Z,71.40
2019-05-11T23:46:01.242Z,71.50
2019-05-11T23:48:30.973Z,71.10
2019-05-11T23:51:01.520Z,71.60
2019-05-11T23:53:31.410Z,71.40
2019-05-11T23:56:01.942Z,71.40
2019-05-11T23:58:31.837Z,71.80
